Time;durP1;ratioP1;P1;durP2;ratioP2;P2;SDS_P1;SDS_P2;PMS_P1;PMS_P2;Temp;Humidity;BMP_temperature;BMP_pressure;BME280_temperature;BME280_humidity;BME280_pressure;Samples;Min_cycle;Max_cycle;Signal;HPM_P1;HPM_P2
2021/01/27 00:00:26;;;;;;;14.60;12.68;;;22.10;30.00;;;;;;5044778;28;20086;-53
2021/01/27 00:02:52;;;;;;;13.13;11.50;;;22.10;30.00;;;;;;5027653;28;20045;-54
2021/01/27 00:05:25;;;;;;;13.45;11.23;;;22.00;30.00;;;;;;5041690;28;20025;-57
2021/01/27 00:07:51;;;;;;;13.77;11.18;;;22.00;30.00;;;;;;5048694;28;20029;-54
2021/01/27 00:10:17;;;;;;;15.35;11.50;;;22.00;30.00;;;;;;5043351;28;20048;-53
2021/01/27 00:12:43;;;;;;;13.13;10.57;;;22.00;30.00;;;;;;5041819;28;20342;-52
2021/01/27 00:15:17;;;;;;;12.57;10.57;;;22.00;29.90;;;;;;5050637;28;20040;-51
2021/01/27 00:17:43;;;;;;;13.65;10.75;;;22.00;29.90;;;;;;5042217;28;20048;-54
2021/01/27 00:20:12;;;;;;;14.20;10.40;;;22.00;29.90;;;;;;5044212;28;20025;-56
2021/01/27 00:22:38;;;;;;;12.27;10.02;;;22.00;29.90;;;;;;5050070;28;20052;-54
2021/01/27 00:25:06;;;;;;;11.25;10.02;;;22.00;30.00;;;;;;5044082;28;20424;-52
2021/01/27 00:27:32;;;;;;;12.65;10.15;;;22.00;29.90;;;;;;5023056;28;20123;-56
2021/01/27 00:29:58;;;;;;;11.80;9.80;;;21.90;29.90;;;;;;5039962;28;20026;-55
2021/01/27 00:32:25;;;;;;;11.95;10.20;;;21.90;29.80;;;;;;5045998;28;20021;-51
2021/01/27 00:34:51;;;;;;;11.85;9.27;;;21.90;29.80;;;;;;5051371;28;20106;-51
2021/01/27 00:37:16;;;;;;;12.40;9.68;;;21.90;29.90;;;;;;5046983;28;20041;-52
2021/01/27 00:39:42;;;;;;;13.32;9.43;;;21.90;29.80;;;;;;5044921;28;20343;-53
2021/01/27 00:42:08;;;;;;;11.90;9.07;;;21.90;29.80;;;;;;5046403;28;20099;-56
2021/01/27 00:44:34;;;;;;;11.48;9.10;;;21.90;29.80;;;;;;5038567;28;20026;-52
2021/01/27 00:47:00;;;;;;;11.43;8.52;;;21.90;29.70;;;;;;5042487;28;20025;-52
2021/01/27 00:49:25;;;;;;;9.38;7.63;;;21.90;29.70;;;;;;5040771;28;20347;-52
2021/01/27 00:51:51;;;;;;;9.40;8.43;;;21.80;29.60;;;;;;5038221;28;20041;-57
2021/01/27 00:54:17;;;;;;;10.32;8.48;;;21.90;29.70;;;;;;5029067;28;20029;-52
2021/01/27 00:56:43;;;;;;;11.40;7.93;;;21.90;29.70;;;;;;5046883;28;20451;-54
2021/01/27 00:59:09;;;;;;;8.65;7.53;;;21.80;29.60;;;;;;5026832;28;20033;-55
2021/01/27 01:01:42;;;;;;;9.55;7.88;;;21.80;29.60;;;;;;5050505;28;20051;-52
2021/01/27 01:04:16;;;;;;;9.20;7.38;;;21.80;29.50;;;;;;5025917;28;20347;-53
2021/01/27 01:06:42;;;;;;;9.68;7.93;;;21.80;29.40;;;;;;5048336;28;20033;-55
2021/01/27 01:09:07;;;;;;;7.88;6.35;;;21.80;29.40;;;;;;5040208;28;20160;-55
2021/01/27 01:11:33;;;;;;;8.38;6.75;;;21.80;29.40;;;;;;5042406;28;20100;-54
2021/01/27 01:13:59;;;;;;;8.43;6.90;;;21.80;29.40;;;;;;5035148;28;20037;-54
2021/01/27 01:16:25;;;;;;;9.20;7.50;;;21.80;29.40;;;;;;5044189;28;20437;-56
2021/01/27 01:18:50;;;;;;;9.73;7.32;;;21.80;29.40;;;;;;5036743;28;20090;-54
2021/01/27 01:21:16;;;;;;;8.23;6.53;;;21.70;29.40;;;;;;5052267;28;20040;-55
2021/01/27 01:23:42;;;;;;;7.63;6.13;;;21.70;29.30;;;;;;5054867;28;20032;-55
2021/01/27 01:26:08;;;;;;;8.57;6.40;;;21.70;29.40;;;;;;5050815;28;20080;-53
2021/01/27 01:28:35;;;;;;;8.45;7.03;;;21.70;29.30;;;;;;5054729;28;20029;-53
2021/01/27 01:31:00;;;;;;;7.50;6.25;;;21.70;29.30;;;;;;5037401;28;20037;-54
2021/01/27 01:33:29;;;;;;;6.38;5.57;;;21.70;29.30;;;;;;5023576;28;20032;-49
2021/01/27 01:35:55;;;;;;;7.05;6.03;;;21.70;29.30;;;;;;5050208;28;20448;-56
2021/01/27 01:38:22;;;;;;;7.43;6.22;;;21.70;29.30;;;;;;5053808;28;20881;-52
2021/01/27 01:40:53;;;;;;;6.93;5.70;;;21.70;29.30;;;;;;5053186;28;20040;-52
2021/01/27 01:43:26;;;;;;;7.32;5.30;;;21.70;29.30;;;;;;5037354;28;20029;-52
2021/01/27 01:45:57;;;;;;;8.43;5.90;;;21.70;29.70;;;;;;5051857;28;20032;-51
2021/01/27 01:48:27;;;;;;;7.05;5.88;;;21.70;29.20;;;;;;5034683;28;20037;-52
2021/01/27 01:51:07;;;;;;;6.60;5.22;;;21.60;29.20;;;;;;5036076;28;20036;-54
2021/01/27 01:53:33;;;;;;;6.57;5.10;;;21.60;29.20;;;;;;5022521;28;20071;-54
2021/01/27 01:56:03;;;;;;;6.28;5.05;;;21.60;29.20;;;;;;5040659;28;20387;-51
2021/01/27 01:58:29;;;;;;;7.13;5.50;;;21.60;29.20;;;;;;5033782;28;20496;-50
2021/01/27 02:00:58;;;;;;;6.38;5.45;;;21.60;29.30;;;;;;5021812;28;20116;-55
2021/01/27 02:03:28;;;;;;;5.45;4.53;;;21.60;29.30;;;;;;5016437;28;20033;-55
2021/01/27 02:05:56;;;;;;;6.47;4.80;;;21.60;29.20;;;;;;5041196;28;20065;-54
2021/01/27 02:08:22;;;;;;;5.68;5.00;;;21.60;29.20;;;;;;5047772;28;20029;-57
2021/01/27 02:10:48;;;;;;;6.88;4.85;;;21.60;29.20;;;;;;5052669;28;20041;-56
2021/01/27 02:13:28;;;;;;;5.18;4.45;;;21.60;29.20;;;;;;5040048;28;20041;-57
2021/01/27 02:16:06;;;;;;;7.07;4.57;;;21.50;29.00;;;;;;5034488;28;20072;-52
2021/01/27 02:19:02;;;;;;;6.00;4.35;;;21.50;29.10;;;;;;5042177;28;20108;-52
2021/01/27 02:21:46;;;;;;;5.38;4.22;;;21.50;29.10;;;;;;5051614;28;20032;-50
2021/01/27 02:24:43;;;;;;;5.73;4.37;;;21.60;29.10;;;;;;5054053;28;20033;-54
2021/01/27 02:27:35;;;;;;;5.38;3.95;;;21.50;29.00;;;;;;5037672;28;20283;-53
2021/01/27 02:30:25;;;;;;;5.22;3.83;;;21.50;29.00;;;;;;5050038;28;20037;-55
2021/01/27 02:33:16;;;;;;;4.53;3.95;;;21.50;29.00;;;;;;5053612;28;20021;-48
2021/01/27 02:35:48;;;;;;;5.90;3.80;;;21.50;29.00;;;;;;5046593;28;20029;-52
2021/01/27 02:38:32;;;;;;;4.28;3.47;;;21.50;29.10;;;;;;5030557;28;20045;-53
2021/01/27 02:41:48;;;;;;;4.82;3.55;;;21.50;29.10;;;;;;5049226;28;20061;-52
2021/01/27 02:44:18;;;;;;;4.22;3.75;;;21.40;29.00;;;;;;5050564;28;20029;-54
2021/01/27 02:46:52;;;;;;;4.65;3.53;;;21.40;29.00;;;;;;5034395;28;20029;-50
2021/01/27 02:49:32;;;;;;;4.60;3.75;;;21.40;29.00;;;;;;5034142;28;20387;-56
2021/01/27 02:52:11;;;;;;;4.25;3.28;;;21.40;29.00;;;;;;5045239;28;20115;-51
2021/01/27 02:54:40;;;;;;;4.35;3.40;;;21.40;29.00;;;;;;5051553;28;20029;-53
2021/01/27 02:57:16;;;;;;;5.68;3.80;;;21.40;29.10;;;;;;5034124;28;20042;-51
2021/01/27 02:59:49;;;;;;;4.80;3.40;;;21.40;29.10;;;;;;5034490;28;20060;-51
2021/01/27 03:02:20;;;;;;;5.05;3.80;;;21.40;29.10;;;;;;5042315;28;20043;-55
2021/01/27 03:04:58;;;;;;;4.30;3.08;;;21.40;29.10;;;;;;5051169;28;20029;-53
2021/01/27 03:07:28;;;;;;;3.70;2.72;;;21.40;29.10;;;;;;5047820;28;20033;-55
2021/01/27 03:10:03;;;;;;;4.55;3.15;;;21.40;29.10;;;;;;5047054;28;20034;-55
2021/01/27 03:12:28;;;;;;;4.43;3.22;;;21.40;29.10;;;;;;5034572;28;20061;-52
2021/01/27 03:14:54;;;;;;;3.90;2.95;;;21.30;29.10;;;;;;5053808;28;20126;-53
2021/01/27 03:17:23;;;;;;;3.97;3.15;;;21.30;29.00;;;;;;5042677;28;20368;-55
2021/01/27 03:20:11;;;;;;;3.88;2.53;;;21.30;29.00;;;;;;5052641;28;20052;-53
2021/01/27 03:22:48;;;;;;;3.92;2.88;;;21.30;29.00;;;;;;5036165;28;20044;-55
2021/01/27 03:25:34;;;;;;;3.45;2.25;;;21.30;29.00;;;;;;5040973;28;20029;-54
2021/01/27 03:28:06;;;;;;;2.90;2.40;;;21.30;29.00;;;;;;5040697;28;20033;-55
2021/01/27 03:30:32;;;;;;;3.53;2.47;;;21.30;29.00;;;;;;5054658;28;20068;-55
2021/01/27 03:33:02;;;;;;;2.80;2.25;;;21.30;29.00;;;;;;5051793;28;20080;-56
2021/01/27 03:35:58;;;;;;;3.10;2.33;;;21.30;29.00;;;;;;5054255;28;20348;-54
2021/01/27 03:38:29;;;;;;;3.03;2.22;;;21.30;29.10;;;;;;5035902;28;20473;-55
2021/01/27 03:41:02;;;;;;;3.90;2.53;;;21.30;29.00;;;;;;5039732;28;20033;-56
2021/01/27 03:43:39;;;;;;;2.67;2.20;;;21.30;29.00;;;;;;5055425;28;20090;-55
2021/01/27 03:46:17;;;;;;;3.00;2.20;;;21.30;29.50;;;;;;5050241;28;20029;-55
2021/01/27 03:48:56;;;;;;;3.45;1.92;;;21.30;29.00;;;;;;5036780;28;20030;-56
2021/01/27 03:51:24;;;;;;;2.78;2.03;;;21.20;28.90;;;;;;5051771;28;20344;-56
2021/01/27 03:53:52;;;;;;;2.47;2.10;;;21.20;28.90;;;;;;5038231;28;20037;-56
2021/01/27 03:56:29;;;;;;;2.10;1.77;;;21.20;28.90;;;;;;5048218;28;20033;-57
2021/01/27 03:58:55;;;;;;;2.75;1.90;;;21.20;28.90;;;;;;5055432;28;20352;-55
2021/01/27 04:01:22;;;;;;;2.90;1.90;;;21.20;29.00;;;;;;5050295;28;20109;-55
2021/01/27 04:03:53;;;;;;;2.40;1.85;;;21.20;29.50;;;;;;5037049;28;20387;-54
2021/01/27 04:06:19;;;;;;;2.53;1.73;;;21.20;29.00;;;;;;5037519;28;20521;-54
2021/01/27 04:08:45;;;;;;;2.75;1.80;;;21.20;29.00;;;;;;5041092;28;20455;-54
2021/01/27 04:11:12;;;;;;;3.22;1.85;;;21.20;29.00;;;;;;5039446;28;20017;-51
2021/01/27 04:13:38;;;;;;;2.60;1.35;;;21.20;29.00;;;;;;5055738;28;20124;-52
2021/01/27 04:16:05;;;;;;;2.28;1.70;;;21.10;29.00;;;;;;5049914;28;20053;-56
2021/01/27 04:18:31;;;;;;;2.40;1.98;;;21.20;29.00;;;;;;5036385;28;20030;-55
2021/01/27 04:20:57;;;;;;;3.30;1.63;;;21.10;29.00;;;;;;5051791;28;20026;-52
2021/01/27 04:23:24;;;;;;;2.20;1.70;;;21.10;29.00;;;;;;5050043;28;20079;-57
2021/01/27 04:25:49;;;;;;;2.50;1.60;;;21.10;29.00;;;;;;5052118;28;20033;-54
2021/01/27 04:28:16;;;;;;;2.20;1.55;;;21.10;29.00;;;;;;5036224;28;20318;-54
2021/01/27 04:30:42;;;;;;;2.88;1.50;;;21.10;29.00;;;;;;5035908;28;20034;-54
2021/01/27 04:33:10;;;;;;;1.80;1.50;;;21.10;29.50;;;;;;5055033;28;20033;-57
2021/01/27 04:35:38;;;;;;;1.98;1.52;;;21.10;29.00;;;;;;5052401;28;20036;-56
2021/01/27 04:38:06;;;;;;;2.80;1.80;;;21.10;29.00;;;;;;5043106;28;20140;-55
2021/01/27 04:40:32;;;;;;;1.50;1.20;;;21.10;29.00;;;;;;5045429;28;20107;-53
2021/01/27 04:42:58;;;;;;;1.80;1.30;;;21.10;29.00;;;;;;5041313;28;20121;-54
2021/01/27 04:45:25;;;;;;;2.20;1.58;;;21.00;28.90;;;;;;5040626;28;20033;-56
2021/01/27 04:48:10;;;;;;;1.73;1.60;;;21.10;29.00;;;;;;5041023;28;20029;-54
2021/01/27 04:50:44;;;;;;;1.65;1.48;;;21.00;29.00;;;;;;5043585;28;20037;-53
2021/01/27 04:53:28;;;;;;;;;;;21.00;28.90;;;;;;5042471;28;20090;-56
2021/01/27 04:56:05;;;;;;;1.67;1.30;;;21.00;29.00;;;;;;5039125;28;20028;-55
2021/01/27 04:58:49;;;;;;;1.70;1.40;;;21.00;29.00;;;;;;5044183;28;20111;-52
2021/01/27 05:01:46;;;;;;;1.43;1.17;;;21.00;29.00;;;;;;5051760;28;20119;-55
2021/01/27 05:04:23;;;;;;;1.75;1.25;;;21.00;29.00;;;;;;5044369;28;20325;-54
2021/01/27 05:06:53;;;;;;;1.30;1.20;;;21.00;29.00;;;;;;5054942;28;20312;-56
2021/01/27 05:09:33;;;;;;;1.50;1.17;;;21.00;29.00;;;;;;5040000;28;20380;-54
2021/01/27 05:12:02;;;;;;;1.65;1.10;;;21.00;29.00;;;;;;5044551;28;20043;-55
2021/01/27 05:14:29;;;;;;;1.48;0.90;;;21.00;29.00;;;;;;5050224;28;20032;-54
2021/01/27 05:16:57;;;;;;;1.50;1.00;;;21.00;29.10;;;;;;5043453;28;20044;-53
2021/01/27 05:19:23;;;;;;;1.63;1.13;;;20.90;29.00;;;;;;5049475;28;20068;-53
2021/01/27 05:21:56;;;;;;;2.08;1.35;;;21.00;29.10;;;;;;5051942;28;20033;-52
2021/01/27 05:24:22;;;;;;;1.40;1.17;;;20.90;29.10;;;;;;5047399;28;20385;-53
2021/01/27 05:27:04;;;;;;;1.60;1.05;;;20.90;29.10;;;;;;5035033;28;20104;-53
2021/01/27 05:29:45;;;;;;;1.50;1.20;;;20.90;29.10;;;;;;5023343;28;20057;-53
2021/01/27 05:32:18;;;;;;;1.40;1.10;;;20.90;29.10;;;;;;5034706;28;20463;-55
2021/01/27 05:34:46;;;;;;;1.50;1.10;;;20.90;29.10;;;;;;5046924;28;20347;-56
2021/01/27 05:37:27;;;;;;;1.60;1.30;;;20.90;29.10;;;;;;5054194;28;20045;-50
2021/01/27 05:40:07;;;;;;;1.40;1.10;;;20.90;29.10;;;;;;5052014;28;20063;-53
2021/01/27 05:42:35;;;;;;;0.77;0.77;;;20.90;29.10;;;;;;5036684;28;20025;-54
2021/01/27 05:45:42;;;;;;;1.95;1.10;;;20.90;29.10;;;;;;5043604;28;20061;-54
2021/01/27 05:48:26;;;;;;;0.90;0.70;;;20.90;29.10;;;;;;5040203;28;20037;-56
2021/01/27 05:51:02;;;;;;;2.30;1.20;;;20.90;29.20;;;;;;5037384;28;20377;-51
2021/01/27 05:53:30;;;;;;;1.48;0.95;;;20.90;29.20;;;;;;5034454;28;20025;-54
2021/01/27 05:56:15;;;;;;;1.50;1.10;;;20.80;29.20;;;;;;5038153;28;20041;-53
2021/01/27 05:58:49;;;;;;;1.50;1.00;;;20.80;29.20;;;;;;5034082;28;20037;-52
2021/01/27 06:01:36;;;;;;;1.30;1.00;;;20.80;29.20;;;;;;5054151;28;20039;-54
2021/01/27 06:04:07;;;;;;;1.55;1.05;;;20.80;29.20;;;;;;5033566;28;21553;-51
2021/01/27 06:06:35;;;;;;;0.80;0.80;;;20.90;29.20;;;;;;5034202;28;20037;-53
2021/01/27 06:09:04;;;;;;;1.50;0.95;;;20.80;29.20;;;;;;5037617;28;20018;-57
2021/01/27 06:11:30;;;;;;;1.40;0.82;;;20.80;29.30;;;;;;5034351;28;20495;-53
2021/01/27 06:14:12;;;;;;;1.05;0.80;;;20.80;29.70;;;;;;5051432;28;20033;-57
2021/01/27 06:16:47;;;;;;;1.20;0.80;;;20.80;29.30;;;;;;5034197;28;20088;-51
2021/01/27 06:19:22;;;;;;;1.83;1.00;;;20.80;29.30;;;;;;5046932;28;20297;-53
2021/01/27 06:22:00;;;;;;;1.38;0.90;;;20.80;29.30;;;;;;5034091;28;20037;-56
2021/01/27 06:24:26;;;;;;;1.30;1.05;;;20.80;29.30;;;;;;5040446;28;20045;-54
2021/01/27 06:27:02;;;;;;;1.10;1.00;;;20.80;29.40;;;;;;5054068;28;20040;-52
2021/01/27 06:29:54;;;;;;;1.00;0.70;;;20.80;29.40;;;;;;5053483;28;20032;-53
2021/01/27 06:32:42;;;;;;;1.10;0.80;;;20.80;29.40;;;;;;5035922;28;20048;-55
2021/01/27 06:35:45;;;;;;;1.08;0.77;;;20.80;29.50;;;;;;5044668;28;20052;-56
2021/01/27 06:38:51;;;;;;;1.02;0.70;;;20.70;29.50;;;;;;5049129;28;20044;-56
2021/01/27 06:41:44;;;;;;;1.70;0.70;;;20.70;29.60;;;;;;4977300;28;20045;-55
2021/01/27 06:44:39;;;;;;;4.45;1.05;;;20.70;29.60;;;;;;5039458;28;20047;-51
2021/01/27 06:47:23;;;;;;;1.15;0.88;;;20.70;29.60;;;;;;5039496;28;20424;-56
2021/01/27 06:50:26;;;;;;;1.60;1.02;;;20.70;29.70;;;;;;5045658;28;20029;-56
2021/01/27 06:52:52;;;;;;;2.47;1.23;;;20.70;29.70;;;;;;5053245;28;20068;-51
2021/01/27 06:55:29;;;;;;;3.30;1.40;;;20.70;29.80;;;;;;5045628;28;20149;-55
2021/01/27 06:58:29;;;;;;;3.75;1.17;;;20.70;29.80;;;;;;5045560;28;20029;-59
2021/01/27 07:00:57;;;;;;;2.38;1.15;;;20.70;29.70;;;;;;5056713;28;20348;-52
2021/01/27 07:03:23;;;;;;;3.83;1.30;;;20.70;29.80;;;;;;5039480;28;20044;-52
2021/01/27 07:06:12;;;;;;;3.20;1.40;;;20.60;29.70;;;;;;5021059;28;20347;-56
2021/01/27 07:09:03;;;;;;;5.68;1.50;;;20.70;29.70;;;;;;5038854;28;20333;-53
2021/01/27 07:11:41;;;;;;;3.22;1.40;;;20.60;29.70;;;;;;5041257;28;20100;-54
2021/01/27 07:14:48;;;;;;;3.00;1.30;;;20.70;29.70;;;;;;5054146;28;20029;-51
2021/01/27 07:17:39;;;;;;;2.63;1.30;;;20.60;29.70;;;;;;5050169;28;20075;-57
2021/01/27 07:20:31;;;;;;;3.30;1.40;;;20.60;29.80;;;;;;5057106;28;20337;-54
2021/01/27 07:23:30;;;;;;;2.60;1.45;;;20.60;29.80;;;;;;5043635;28;20451;-54
2021/01/27 07:25:55;;;;;;;4.15;1.50;;;20.60;29.80;;;;;;5019371;28;20108;-55
2021/01/27 07:28:24;;;;;;;2.15;1.50;;;20.60;29.80;;;;;;5051498;28;20135;-55
2021/01/27 07:31:10;;;;;;;4.57;1.40;;;20.60;29.80;;;;;;5028193;28;20357;-56
2021/01/27 07:33:53;;;;;;;3.25;1.48;;;20.60;29.90;;;;;;5041757;28;20436;-52
2021/01/27 07:37:05;;;;;;;2.17;1.08;;;20.60;29.90;;;;;;5050403;28;20037;-56
2021/01/27 07:39:39;;;;;;;2.95;1.30;;;20.60;29.90;;;;;;5048729;28;20079;-57
2021/01/27 07:42:16;;;;;;;1.98;1.27;;;20.60;29.90;;;;;;5044763;28;20349;-56
2021/01/27 07:44:47;;;;;;;4.60;1.52;;;20.60;30.00;;;;;;5039405;28;20358;-57
2021/01/27 07:47:31;;;;;;;2.15;1.30;;;20.60;30.00;;;;;;5045336;28;20021;-54
2021/01/27 07:49:58;;;;;;;2.78;1.45;;;20.60;30.00;;;;;;5048569;28;20022;-56
2021/01/27 07:52:36;;;;;;;4.25;1.63;;;20.60;30.00;;;;;;5042163;28;20114;-58
2021/01/27 07:55:17;;;;;;;4.03;1.35;;;20.60;30.00;;;;;;5050570;28;20423;-53
2021/01/27 07:58:00;;;;;;;3.10;1.30;;;20.60;30.00;;;;;;5053526;28;20048;-53
2021/01/27 08:00:37;;;;;;;4.53;1.60;;;20.60;30.00;;;;;;5048452;28;20052;-55
2021/01/27 08:03:06;;;;;;;3.08;1.50;;;20.60;30.20;;;;;;5040707;28;20360;-56
2021/01/27 08:05:38;;;;;;;4.22;1.80;;;20.70;30.60;;;;;;5031971;28;20071;-60
2021/01/27 08:08:11;;;;;;;4.03;1.83;;;20.80;30.90;;;;;;5053766;28;20227;-63
2021/01/27 08:10:38;;;;;;;4.38;1.75;;;20.90;31.00;;;;;;5044610;28;20025;-58
2021/01/27 08:13:07;;;;;;;2.83;1.35;;;21.00;31.00;;;;;;5048809;28;20459;-60
2021/01/27 08:15:59;;;;;;;3.33;1.63;;;21.20;31.00;;;;;;5031777;28;20024;-61
2021/01/27 08:18:25;;;;;;;4.03;1.60;;;21.30;30.80;;;;;;5054387;28;20029;-61
2021/01/27 08:21:24;;;;;;;3.20;1.50;;;21.60;30.70;;;;;;5037702;28;20041;-59
2021/01/27 08:23:50;;;;;;;2.33;1.48;;;21.80;30.50;;;;;;5048141;28;20029;-58
2021/01/27 08:26:41;;;;;;;2.72;1.27;;;22.00;30.40;;;;;;5022570;28;20163;-59
2021/01/27 08:29:12;;;;;;;3.47;1.27;;;22.10;30.20;;;;;;5027165;28;20032;-60
2021/01/27 08:31:41;;;;;;;1.90;1.02;;;22.30;30.00;;;;;;5031147;28;20440;-59
2021/01/27 08:34:07;;;;;;;2.65;1.50;;;22.50;30.00;;;;;;5041057;28;20333;-61
2021/01/27 08:36:33;;;;;;;2.88;1.20;;;22.70;29.90;;;;;;5045410;28;20047;-60
2021/01/27 08:39:12;;;;;;;2.15;1.30;;;22.90;29.70;;;;;;5043784;28;20094;-63
2021/01/27 08:41:45;;;;;;;2.85;1.00;;;23.10;29.60;;;;;;5048069;28;20105;-56
2021/01/27 08:44:20;;;;;;;2.97;1.23;;;23.30;29.50;;;;;;5050001;28;20103;-61
2021/01/27 08:47:00;;;;;;;2.35;1.15;;;23.50;29.30;;;;;;5043688;28;20451;-60
2021/01/27 08:49:42;;;;;;;2.50;1.00;;;23.80;29.10;;;;;;5039999;28;20040;-60
2021/01/27 08:52:10;;;;;;;3.25;1.30;;;24.00;28.90;;;;;;5053209;28;20439;-62
2021/01/27 08:54:39;;;;;;;2.90;1.05;;;24.20;28.80;;;;;;5054488;28;20391;-62
2021/01/27 08:57:21;;;;;;;1.70;1.00;;;24.30;28.80;;;;;;5047496;28;20044;-61
2021/01/27 08:59:52;;;;;;;2.22;1.08;;;24.40;28.70;;;;;;5054946;28;20029;-54
2021/01/27 09:02:51;;;;;;;2.08;0.98;;;24.40;28.70;;;;;;5050923;28;20024;-55
2021/01/27 09:05:26;;;;;;;1.95;1.02;;;24.40;28.70;;;;;;5020624;28;20534;-54
2021/01/27 09:07:59;;;;;;;2.95;1.13;;;24.30;28.70;;;;;;5034846;28;20381;-58
2021/01/27 09:10:32;;;;;;;2.53;1.00;;;24.30;28.70;;;;;;5049080;28;20052;-56
2021/01/27 09:12:59;;;;;;;2.30;1.20;;;24.30;28.70;;;;;;5054815;28;20114;-60
2021/01/27 09:15:34;;;;;;;2.55;1.10;;;24.30;28.80;;;;;;5037394;28;20018;-56
2021/01/27 09:18:03;;;;;;;2.33;1.00;;;24.30;28.80;;;;;;5039577;28;20132;-56
2021/01/27 09:20:31;;;;;;;2.53;1.08;;;24.30;28.80;;;;;;5050300;28;20040;-59
2021/01/27 09:23:05;;;;;;;3.00;1.45;;;24.30;28.80;;;;;;5044512;28;20470;-54
2021/01/27 09:25:32;;;;;;;2.15;1.10;;;24.30;28.80;;;;;;5045220;28;20021;-53
2021/01/27 09:28:07;;;;;;;2.22;1.05;;;24.30;28.80;;;;;;5043174;28;20121;-55
2021/01/27 09:30:34;;;;;;;3.33;1.20;;;24.40;28.80;;;;;;5045053;28;20029;-57
2021/01/27 09:33:13;;;;;;;2.05;0.95;;;24.40;28.70;;;;;;5046451;28;20025;-57
2021/01/27 09:35:40;;;;;;;2.25;0.95;;;24.50;28.70;;;;;;5046697;28;20017;-57
2021/01/27 09:38:14;;;;;;;1.90;0.90;;;24.50;28.70;;;;;;5053747;28;20084;-54
2021/01/27 09:40:49;;;;;;;3.20;1.50;;;24.50;28.60;;;;;;5053480;28;20045;-59
2021/01/27 09:43:18;;;;;;;2.13;1.10;;;24.60;28.70;;;;;;5053890;28;20087;-57
2021/01/27 09:45:50;;;;;;;1.45;0.70;;;24.60;28.60;;;;;;5047238;28;20118;-55
2021/01/27 09:48:19;;;;;;;1.50;0.80;;;24.70;28.60;;;;;;5050061;28;20029;-59
2021/01/27 09:50:58;;;;;;;1.67;0.88;;;24.70;28.60;;;;;;5024684;28;20395;-56
2021/01/27 09:53:30;;;;;;;1.55;0.85;;;24.80;28.60;;;;;;5053810;28;20230;-51
2021/01/27 09:55:56;;;;;;;2.17;1.15;;;24.80;28.50;;;;;;5053262;28;20211;-59
2021/01/27 09:58:22;;;;;;;2.15;1.20;;;24.80;28.40;;;;;;5023834;28;20056;-55
2021/01/27 10:00:51;;;;;;;2.95;0.70;;;24.80;28.30;;;;;;5044257;28;20467;-53
2021/01/27 10:03:25;;;;;;;1.30;0.57;;;24.80;28.30;;;;;;5031507;28;20348;-54
2021/01/27 10:05:51;;;;;;;0.95;0.60;;;24.80;28.30;;;;;;5053990;28;20025;-57
2021/01/27 10:08:24;;;;;;;1.50;0.60;;;24.80;28.30;;;;;;5039729;28;20112;-56
2021/01/27 10:11:00;;;;;;;0.98;0.70;;;24.80;28.30;;;;;;5053423;28;20498;-54
2021/01/27 10:13:31;;;;;;;1.90;0.70;;;24.80;28.30;;;;;;5049893;28;20040;-54
2021/01/27 10:16:10;;;;;;;1.05;0.60;;;24.80;28.30;;;;;;5034404;28;20124;-52
2021/01/27 10:18:38;;;;;;;0.93;0.60;;;24.80;28.30;;;;;;5045583;28;20029;-58
2021/01/27 10:21:10;;;;;;;1.63;0.88;;;24.70;28.20;;;;;;5052564;28;20024;-55
2021/01/27 10:23:47;;;;;;;1.38;0.60;;;24.70;28.20;;;;;;5049688;28;20182;-58
2021/01/27 10:26:24;;;;;;;1.20;0.65;;;24.70;28.20;;;;;;5052486;28;20045;-53
2021/01/27 10:29:20;;;;;;;1.30;0.80;;;24.60;28.20;;;;;;5045697;28;20119;-57
2021/01/27 10:31:54;;;;;;;1.77;0.70;;;24.60;28.20;;;;;;5039323;28;20044;-54
2021/01/27 10:34:42;;;;;;;0.77;0.55;;;24.60;28.20;;;;;;5047857;28;20029;-58
2021/01/27 10:37:36;;;;;;;0.77;0.43;;;24.60;28.20;;;;;;5055819;28;20045;-56
2021/01/27 10:40:20;;;;;;;0.93;0.60;;;24.50;28.20;;;;;;5054359;28;20049;-52
2021/01/27 10:42:52;;;;;;;1.15;0.73;;;24.50;28.30;;;;;;5053856;28;20044;-56
2021/01/27 10:45:26;;;;;;;1.33;0.50;;;24.50;28.30;;;;;;5047935;28;20029;-55
2021/01/27 10:48:03;;;;;;;1.40;0.50;;;24.40;28.30;;;;;;5047225;28;20360;-54
2021/01/27 10:50:30;;;;;;;1.00;0.47;;;24.40;28.30;;;;;;5055496;28;20034;-52
2021/01/27 10:52:57;;;;;;;0.93;0.52;;;24.40;28.30;;;;;;5055783;28;20029;-54
2021/01/27 10:55:29;;;;;;;1.40;0.40;;;24.40;28.40;;;;;;5040004;28;20075;-53
2021/01/27 10:58:09;;;;;;;1.23;0.57;;;24.30;28.40;;;;;;5047684;28;20041;-51
2021/01/27 11:00:35;;;;;;;1.00;0.47;;;24.30;28.30;;;;;;5043139;28;20025;-58
2021/01/27 11:03:01;;;;;;;0.60;0.35;;;24.30;28.20;;;;;;5037908;28;20048;-51
2021/01/27 11:05:27;;;;;;;1.33;0.50;;;24.20;28.20;;;;;;5043392;28;20033;-52
2021/01/27 11:07:54;;;;;;;1.70;0.50;;;24.20;28.10;;;;;;5052269;28;20379;-55
2021/01/27 11:10:20;;;;;;;0.40;0.30;;;24.10;28.10;;;;;;5056665;28;20086;-58
2021/01/27 11:12:46;;;;;;;1.08;0.50;;;24.10;28.10;;;;;;5057176;28;20037;-53
2021/01/27 11:15:12;;;;;;;0.93;0.50;;;24.10;28.10;;;;;;5049660;28;20044;-59
2021/01/27 11:17:38;;;;;;;0.35;0.30;;;24.10;28.20;;;;;;5036449;28;20045;-57
2021/01/27 11:20:06;;;;;;;0.63;0.35;;;24.10;28.20;;;;;;5041738;28;20344;-57
2021/01/27 11:22:31;;;;;;;0.90;0.50;;;24.10;28.30;;;;;;5056341;28;20464;-57
2021/01/27 11:24:58;;;;;;;0.93;0.50;;;24.10;28.30;;;;;;5054769;28;20064;-57
2021/01/27 11:27:24;;;;;;;0.95;0.35;;;24.10;28.30;;;;;;5056172;28;20116;-58
2021/01/27 11:29:49;;;;;;;1.00;0.40;;;24.10;28.40;;;;;;5042231;28;20453;-55
2021/01/27 11:32:15;;;;;;;0.90;0.50;;;24.10;28.40;;;;;;5036707;28;20052;-58
2021/01/27 11:34:41;;;;;;;0.77;0.40;;;24.10;28.60;;;;;;5053889;28;20131;-57
2021/01/27 11:37:10;;;;;;;1.17;0.43;;;24.10;28.80;;;;;;5045388;28;20044;-55
2021/01/27 11:39:36;;;;;;;0.73;0.50;;;24.10;28.90;;;;;;5034226;28;20110;-56
2021/01/27 11:42:03;;;;;;;3.38;0.70;;;24.10;28.90;;;;;;5049605;28;20438;-56
2021/01/27 11:44:29;;;;;;;0.88;0.60;;;24.10;28.90;;;;;;5055518;28;20136;-57
2021/01/27 11:46:54;;;;;;;0.68;0.50;;;24.10;28.90;;;;;;5052761;28;20067;-57
2021/01/27 11:49:20;;;;;;;1.10;0.52;;;24.10;28.90;;;;;;5027583;28;20040;-57
2021/01/27 11:51:47;;;;;;;1.30;0.60;;;24.10;28.90;;;;;;5051585;28;20017;-56
2021/01/27 11:54:13;;;;;;;0.82;0.60;;;24.10;28.90;;;;;;5052555;28;20041;-53
2021/01/27 11:56:40;;;;;;;1.38;0.50;;;24.10;28.90;;;;;;5044221;28;20087;-55
2021/01/27 11:59:07;;;;;;;1.27;0.60;;;24.10;28.90;;;;;;5053668;28;20043;-53
2021/01/27 12:01:35;;;;;;;0.80;0.50;;;24.10;28.90;;;;;;5045016;28;20036;-54
2021/01/27 12:04:04;;;;;;;1.63;0.77;;;24.10;28.90;;;;;;5047292;28;20026;-56
2021/01/27 12:06:30;;;;;;;1.38;0.55;;;24.10;28.90;;;;;;5039671;28;20309;-54
2021/01/27 12:08:56;;;;;;;0.70;0.50;;;24.10;28.90;;;;;;5052202;28;20039;-57
2021/01/27 12:11:22;;;;;;;0.70;0.60;;;24.10;28.90;;;;;;5042474;28;20031;-56
2021/01/27 12:13:48;;;;;;;1.25;0.70;;;24.10;28.90;;;;;;5055758;28;20108;-51
2021/01/27 12:16:14;;;;;;;0.73;0.43;;;24.10;28.90;;;;;;5035896;28;20025;-58
2021/01/27 12:18:42;;;;;;;1.10;0.60;;;24.10;28.90;;;;;;5049708;28;20032;-60
2021/01/27 12:21:09;;;;;;;0.60;0.50;;;24.10;28.90;;;;;;5036344;28;20040;-56
2021/01/27 12:23:35;;;;;;;1.00;0.40;;;24.20;28.90;;;;;;5055055;28;20029;-52
2021/01/27 12:26:01;;;;;;;2.30;0.63;;;24.10;28.90;;;;;;5025063;28;20040;-54
2021/01/27 12:28:26;;;;;;;1.25;0.70;;;24.10;28.90;;;;;;5037676;28;20386;-54
2021/01/27 12:30:52;;;;;;;0.45;0.40;;;24.10;29.00;;;;;;5048970;28;20073;-59
2021/01/27 12:33:19;;;;;;;0.98;0.45;;;24.10;29.00;;;;;;5048454;28;20029;-57
2021/01/27 12:35:44;;;;;;;0.50;0.47;;;24.10;29.00;;;;;;5055325;28;20037;-55
2021/01/27 12:38:10;;;;;;;0.57;0.52;;;24.10;29.00;;;;;;5044468;28;20364;-55
2021/01/27 12:40:36;;;;;;;1.00;0.60;;;24.10;29.00;;;;;;5055021;28;20047;-58
2021/01/27 12:43:02;;;;;;;1.67;0.57;;;24.00;29.00;;;;;;5053109;28;20041;-55
2021/01/27 12:45:29;;;;;;;1.83;0.60;;;24.10;29.10;;;;;;5054381;28;20032;-52
2021/01/27 12:47:55;;;;;;;1.27;0.70;;;24.00;29.10;;;;;;5049009;28;20321;-56
2021/01/27 12:50:22;;;;;;;1.02;0.60;;;24.00;29.10;;;;;;5051787;28;20052;-56
2021/01/27 12:52:48;;;;;;;0.65;0.60;;;24.00;29.10;;;;;;5053168;28;20455;-55
2021/01/27 12:55:16;;;;;;;0.95;0.50;;;24.00;29.10;;;;;;5039812;28;20037;-55
2021/01/27 12:57:44;;;;;;;0.82;0.60;;;24.00;29.10;;;;;;5040981;28;20029;-58
2021/01/27 13:00:19;;;;;;;1.13;0.50;;;24.00;29.20;;;;;;5044422;28;20060;-57
2021/01/27 13:02:46;;;;;;;0.88;0.60;;;23.90;29.20;;;;;;5038271;28;20044;-56
2021/01/27 13:05:13;;;;;;;1.85;0.70;;;23.90;29.30;;;;;;5040487;28;20033;-54
2021/01/27 13:07:39;;;;;;;0.88;0.60;;;23.90;29.50;;;;;;5052622;28;20067;-56
2021/01/27 13:10:08;;;;;;;1.35;0.70;;;23.90;29.50;;;;;;5037050;28;20409;-55
2021/01/27 13:12:38;;;;;;;0.95;0.60;;;23.90;29.50;;;;;;5017206;28;20462;-57
2021/01/27 13:15:09;;;;;;;0.55;0.50;;;23.80;29.40;;;;;;5046039;28;20102;-54